createdAt,value
2022-12-28T00:01:47.485Z,3.83
2022-12-28T00:04:17.863Z,4.05
2022-12-28T00:06:45.409Z,3.85
2022-12-28T00:09:12.905Z,3.35
2022-12-28T00:11:39.502Z,3.50
2022-12-28T00:14:06.063Z,3.83
2022-12-28T00:16:39.421Z,4.22
2022-12-28T00:19:10.807Z,3.70
2022-12-28T00:21:37.245Z,3.28
2022-12-28T00:24:03.876Z,3.42
2022-12-28T00:26:32.872Z,3.63
2022-12-28T00:29:04.636Z,3.30
2022-12-28T00:31:32.232Z,3.35
2022-12-28T00:33:58.806Z,3.30
2022-12-28T00:37:08.433Z,3.38
2022-12-28T00:39:11.846Z,2.97
2022-12-28T00:41:38.260Z,3.10
2022-12-28T00:44:04.843Z,3.28
2022-12-28T00:46:31.313Z,3.28
2022-12-28T00:48:57.754Z,3.20
2022-12-28T00:51:24.232Z,2.97
2022-12-28T00:53:50.812Z,2.80
2022-12-28T00:56:19.562Z,3.30
2022-12-28T00:58:47.835Z,3.13
2022-12-28T01:01:17.912Z,2.88
2022-12-28T01:03:45.052Z,2.95
2022-12-28T01:06:14.830Z,3.05
2022-12-28T01:08:41.588Z,2.83
2022-12-28T01:11:16.001Z,3.22
2022-12-28T01:13:42.720Z,3.40
2022-12-28T01:16:18.622Z,3.20
2022-12-28T01:18:46.475Z,2.92
2022-12-28T01:21:16.062Z,2.60
2022-12-28T01:23:43.703Z,2.78
2022-12-28T01:26:10.292Z,2.95
2022-12-28T01:28:38.484Z,2.80
2022-12-28T01:31:13.467Z,3.00
2022-12-28T01:33:41.864Z,2.70
2022-12-28T01:36:31.383Z,2.80
2022-12-28T01:39:00.296Z,2.97
2022-12-28T01:41:28.679Z,3.03
2022-12-28T01:43:55.027Z,2.88
2022-12-28T01:46:35.281Z,2.80
2022-12-28T01:49:11.580Z,3.13
2022-12-28T01:51:57.642Z,2.95
2022-12-28T01:54:26.853Z,2.85
2022-12-28T01:56:53.528Z,2.65
2022-12-28T01:59:23.569Z,2.70
2022-12-28T02:01:51.732Z,3.10
2022-12-28T02:04:18.260Z,2.83
2022-12-28T02:06:46.061Z,2.70
2022-12-28T02:09:32.199Z,2.72
2022-12-28T02:12:00.427Z,2.58
2022-12-28T02:14:27.008Z,2.90
2022-12-28T02:16:54.961Z,2.67
2022-12-28T02:19:33.418Z,2.40
2022-12-28T02:22:44.735Z,2.30
2022-12-28T02:25:44.188Z,2.88
2022-12-28T02:28:26.530Z,3.03
2022-12-28T02:31:05.972Z,3.10
2022-12-28T02:33:42.657Z,2.75
2022-12-28T02:36:19.033Z,3.13
2022-12-28T02:38:55.667Z,2.97
2022-12-28T02:41:25.432Z,3.08
2022-12-28T02:43:54.089Z,3.05
2022-12-28T02:46:46.895Z,2.47
2022-12-28T02:49:44.190Z,2.30
2022-12-28T02:52:23.506Z,2.60
2022-12-28T02:55:21.488Z,2.95
2022-12-28T02:58:08.587Z,2.70
2022-12-28T03:00:58.134Z,2.80
2022-12-28T03:03:41.680Z,2.45
2022-12-28T03:07:01.004Z,3.00
2022-12-28T03:09:34.831Z,3.33
2022-12-28T03:12:19.548Z,2.33
2022-12-28T03:14:54.059Z,2.67
2022-12-28T03:17:44.737Z,2.97
2022-12-28T03:20:38.048Z,2.45
2022-12-28T03:23:26.580Z,2.75
2022-12-28T03:26:12.132Z,2.83
2022-12-28T03:29:03.231Z,2.50
2022-12-28T03:31:32.918Z,2.42
2022-12-28T03:34:09.516Z,2.47
2022-12-28T03:36:47.915Z,2.72
2022-12-28T03:39:40.305Z,2.22
2022-12-28T03:42:54.599Z,2.50
2022-12-28T03:45:46.432Z,2.70
2022-12-28T03:48:16.683Z,2.45
2022-12-28T03:50:46.886Z,3.03
2022-12-28T03:53:18.119Z,2.40
2022-12-28T03:55:44.657Z,2.60
2022-12-28T03:58:12.030Z,2.80
2022-12-28T04:00:38.667Z,2.70
2022-12-28T04:03:06.909Z,2.53
2022-12-28T04:05:34.769Z,3.65
2022-12-28T04:08:01.262Z,2.45
2022-12-28T04:10:27.779Z,2.83
2022-12-28T04:12:55.850Z,2.70
2022-12-28T04:15:30.613Z,2.83
2022-12-28T04:18:03.569Z,2.45
2022-12-28T04:20:30.283Z,2.45
2022-12-28T04:22:56.718Z,2.60
2022-12-28T04:25:25.018Z,3.00
2022-12-28T04:27:52.753Z,2.53
2022-12-28T04:30:37.850Z,3.05
2022-12-28T04:33:04.404Z,2.90
2022-12-28T04:35:32.298Z,2.88
2022-12-28T04:37:58.770Z,2.65
2022-12-28T04:40:25.206Z,2.50
2022-12-28T04:42:51.940Z,3.10
2022-12-28T04:45:22.128Z,3.08
2022-12-28T04:47:49.056Z,2.97
2022-12-28T04:50:15.448Z,2.95
2022-12-28T04:52:43.279Z,2.72
2022-12-28T04:55:31.433Z,3.08
2022-12-28T04:57:56.142Z,2.92
2022-12-28T05:00:22.567Z,2.70
2022-12-28T05:02:49.150Z,2.80
2022-12-28T05:05:15.666Z,3.10
2022-12-28T05:07:42.103Z,2.70
2022-12-28T05:10:08.826Z,2.63
2022-12-28T05:12:35.287Z,3.20
2022-12-28T05:15:01.893Z,2.92
2022-12-28T05:17:28.365Z,3.08
2022-12-28T05:19:54.864Z,3.45
2022-12-28T05:22:21.279Z,3.40
2022-12-28T05:24:47.803Z,3.58
2022-12-28T05:27:14.218Z,3.53
2022-12-28T05:29:40.630Z,3.40
2022-12-28T05:32:07.259Z,3.58
2022-12-28T05:34:33.724Z,3.20
2022-12-28T05:37:00.280Z,3.85
2022-12-28T05:39:26.706Z,3.33
2022-12-28T05:41:53.163Z,4.25
2022-12-28T05:44:19.563Z,5.97
2022-12-28T05:46:46.180Z,5.97
2022-12-28T05:49:12.649Z,7.22
2022-12-28T05:51:40.135Z,5.55
2022-12-28T05:54:06.801Z,5.57
2022-12-28T05:56:33.653Z,4.90
2022-12-28T05:59:02.924Z,4.88
2022-12-28T06:01:32.601Z,4.45
2022-12-28T06:04:02.479Z,4.38
2022-12-28T06:06:30.489Z,4.40
2022-12-28T06:08:57.260Z,4.28
2022-12-28T06:11:26.115Z,3.92
2022-12-28T06:13:53.319Z,3.85
2022-12-28T06:16:25.605Z,3.50
2022-12-28T06:18:52.570Z,4.13
2022-12-28T06:21:22.070Z,4.32
2022-12-28T06:23:49.021Z,3.20
2022-12-28T06:26:18.366Z,3.53
2022-12-28T06:28:45.731Z,3.45
2022-12-28T06:31:20.944Z,3.92
2022-12-28T06:33:48.956Z,3.63
2022-12-28T06:36:20.303Z,3.92
2022-12-28T06:38:48.906Z,3.55
2022-12-28T06:41:17.265Z,3.45
2022-12-28T06:43:44.142Z,3.75
2022-12-28T06:46:12.146Z,3.55
2022-12-28T06:48:39.454Z,3.67
2022-12-28T06:51:20.700Z,3.60
2022-12-28T06:53:48.559Z,3.80
2022-12-28T06:56:17.531Z,3.80
2022-12-28T06:58:44.845Z,3.55
2022-12-28T07:01:17.307Z,3.85
2022-12-28T07:03:45.428Z,3.58
2022-12-28T07:06:13.281Z,3.45
2022-12-28T07:08:40.228Z,3.35
2022-12-28T07:11:10.062Z,3.20
2022-12-28T07:13:36.694Z,3.40
2022-12-28T07:16:05.682Z,3.17
2022-12-28T07:18:33.241Z,3.00
2022-12-28T07:21:05.946Z,3.40
2022-12-28T07:23:34.003Z,3.08
2022-12-28T07:26:12.151Z,2.75
2022-12-28T07:28:40.378Z,3.17
2022-12-28T07:31:14.672Z,2.95
2022-12-28T07:33:41.277Z,3.00
2022-12-28T07:36:10.209Z,3.00
2022-12-28T07:38:36.887Z,2.90
2022-12-28T07:41:04.632Z,2.88
2022-12-28T07:43:31.642Z,3.10
2022-12-28T07:46:01.981Z,2.90
2022-12-28T07:48:33.135Z,3.00
2022-12-28T07:51:07.607Z,2.85
2022-12-28T07:53:34.493Z,2.80
2022-12-28T07:56:01.024Z,2.90
2022-12-28T07:58:27.808Z,2.53
2022-12-28T08:00:54.252Z,3.15
2022-12-28T08:03:21.092Z,2.38
2022-12-28T08:05:47.580Z,2.90
2022-12-28T08:08:13.995Z,2.58
2022-12-28T08:10:40.385Z,2.63
2022-12-28T08:13:06.813Z,2.63
2022-12-28T08:15:33.460Z,2.35
2022-12-28T08:17:59.942Z,2.30
2022-12-28T08:20:26.365Z,2.20
2022-12-28T08:22:53.271Z,2.30
2022-12-28T08:25:19.677Z,2.30
2022-12-28T08:27:46.098Z,2.22
2022-12-28T08:30:12.759Z,2.25
2022-12-28T08:32:39.294Z,2.20
2022-12-28T08:35:06.069Z,2.10
2022-12-28T08:37:32.491Z,2.47
2022-12-28T08:39:58.933Z,2.60
2022-12-28T08:42:25.365Z,2.42
2022-12-28T08:44:51.747Z,2.30
2022-12-28T08:47:18.216Z,2.40
2022-12-28T08:49:44.773Z,2.55
2022-12-28T08:52:11.204Z,2.30
2022-12-28T08:54:37.669Z,2.20
2022-12-28T08:57:04.088Z,2.35
2022-12-28T08:59:30.532Z,2.30
2022-12-28T09:01:57.123Z,2.45
2022-12-28T09:04:23.676Z,2.25
2022-12-28T09:06:50.582Z,2.60
2022-12-28T09:09:19.646Z,2.90
2022-12-28T09:11:46.787Z,3.00
2022-12-28T09:14:20.732Z,2.67
2022-12-28T09:16:49.536Z,2.72
2022-12-28T09:19:15.987Z,3.15
2022-12-28T09:21:44.854Z,2.70
2022-12-28T09:24:13.322Z,3.05
2022-12-28T09:26:39.915Z,2.75
2022-12-28T09:29:08.833Z,2.80
2022-12-28T09:31:37.199Z,3.13
2022-12-28T09:36:57.603Z,2.83
2022-12-28T09:39:27.007Z,2.83
2022-12-28T09:42:05.361Z,2.80
2022-12-28T09:44:34.789Z,2.95
2022-12-28T09:47:29.560Z,2.53
2022-12-28T09:50:05.980Z,2.80
2022-12-28T09:52:49.444Z,2.72
2022-12-28T09:55:18.318Z,2.80
2022-12-28T09:57:50.644Z,2.60
2022-12-28T10:00:33.087Z,2.60
2022-12-28T10:03:05.409Z,2.60
2022-12-28T10:05:32.977Z,2.50
2022-12-28T10:07:59.624Z,2.85
2022-12-28T10:10:27.438Z,2.90
2022-12-28T10:12:54.697Z,2.53
2022-12-28T10:15:27.110Z,3.00
2022-12-28T10:17:53.932Z,2.88
2022-12-28T10:20:22.330Z,2.65
2022-12-28T10:22:55.092Z,3.00
2022-12-28T10:25:24.553Z,2.95
2022-12-28T10:27:51.493Z,3.25
2022-12-28T10:30:26.746Z,3.05
2022-12-28T10:33:03.174Z,2.97
2022-12-28T10:35:50.132Z,2.90
2022-12-28T10:38:23.212Z,2.80
2022-12-28T10:41:01.396Z,2.93
2022-12-28T10:43:30.586Z,2.70
2022-12-28T10:45:59.297Z,2.78
2022-12-28T10:48:33.639Z,3.08
2022-12-28T10:51:18.965Z,2.80
2022-12-28T10:53:48.747Z,2.90
2022-12-28T10:56:15.169Z,3.22
2022-12-28T10:58:46.843Z,2.90
2022-12-28T11:01:13.533Z,2.70
2022-12-28T11:03:56.709Z,2.72
2022-12-28T11:06:28.676Z,2.78
2022-12-28T11:09:00.656Z,2.83
2022-12-28T11:11:27.171Z,2.60
2022-12-28T11:14:02.064Z,2.60
2022-12-28T11:16:33.372Z,2.65
2022-12-28T11:19:00.241Z,2.65
2022-12-28T11:21:26.762Z,2.70
2022-12-28T11:23:53.550Z,2.80
2022-12-28T11:26:20.980Z,2.67
2022-12-28T11:28:52.819Z,2.55
2022-12-28T11:31:26.354Z,2.90
2022-12-28T11:33:58.158Z,2.92
2022-12-28T11:36:27.051Z,2.72
2022-12-28T11:38:56.281Z,2.80
2022-12-28T11:41:33.259Z,2.50
2022-12-28T11:44:02.884Z,2.58
2022-12-28T11:46:29.434Z,2.60
2022-12-28T11:49:23.965Z,2.40
2022-12-28T11:52:30.843Z,2.65
2022-12-28T11:55:00.373Z,2.63
2022-12-28T11:57:44.150Z,2.28
2022-12-28T12:00:21.911Z,2.20
2022-12-28T12:02:58.131Z,2.17
2022-12-28T12:05:37.129Z,2.30
2022-12-28T12:08:12.528Z,2.33
2022-12-28T12:10:41.586Z,1.95
2022-12-28T12:13:26.535Z,2.38
2022-12-28T12:15:58.155Z,2.40
2022-12-28T12:18:27.316Z,2.13
2022-12-28T12:21:11.572Z,2.28
2022-12-28T12:23:48.693Z,2.22
2022-12-28T12:26:33.125Z,2.35
2022-12-28T12:31:35.999Z,2.50
2022-12-28T12:34:39.631Z,2.58
2022-12-28T12:37:29.371Z,2.33
2022-12-28T12:40:09.665Z,2.60
2022-12-28T12:43:03.375Z,2.40
2022-12-28T12:45:48.865Z,3.10
2022-12-28T12:48:44.321Z,2.55
2022-12-28T12:51:33.015Z,2.33
2022-12-28T12:54:22.440Z,3.08
2022-12-28T12:57:02.714Z,3.00
2022-12-28T12:59:56.184Z,3.55
2022-12-28T13:02:29.040Z,3.92
2022-12-28T13:04:55.797Z,3.80
2022-12-28T13:07:25.660Z,4.25
2022-12-28T13:09:54.963Z,4.78
2022-12-28T13:12:23.204Z,4.45
2022-12-28T13:15:09.130Z,4.15
2022-12-28T13:17:38.992Z,3.65
2022-12-28T13:20:17.194Z,3.90
2022-12-28T13:22:46.529Z,3.30
2022-12-28T13:25:31.169Z,3.30
2022-12-28T13:28:00.615Z,3.50
2022-12-28T13:30:27.733Z,2.90
2022-12-28T13:32:59.692Z,2.75
2022-12-28T13:35:29.399Z,3.08
2022-12-28T13:38:08.871Z,3.50
2022-12-28T13:40:37.913Z,3.92
2022-12-28T13:43:29.082Z,3.47
2022-12-28T13:46:02.145Z,3.85
2022-12-28T13:48:31.742Z,3.70
2022-12-28T13:50:58.544Z,3.80
2022-12-28T13:53:29.402Z,3.80
2022-12-28T13:56:02.236Z,3.22
2022-12-28T13:58:33.776Z,3.55
2022-12-28T14:01:04.946Z,3.25
2022-12-28T14:03:38.963Z,4.20
2022-12-28T14:06:07.250Z,4.45
2022-12-28T14:08:36.514Z,3.83
2022-12-28T14:11:04.504Z,4.05
2022-12-28T14:13:32.347Z,3.38
2022-12-28T14:15:59.481Z,3.63
2022-12-28T14:18:26.500Z,3.85
2022-12-28T14:20:55.510Z,3.38
2022-12-28T14:23:24.920Z,3.20
2022-12-28T14:25:54.011Z,2.75
2022-12-28T14:28:33.603Z,2.78
2022-12-28T14:31:00.483Z,2.90
2022-12-28T14:33:29.485Z,2.50
2022-12-28T14:36:01.485Z,2.60
2022-12-28T14:38:33.129Z,2.47
2022-12-28T14:41:01.815Z,2.70
2022-12-28T14:43:31.375Z,2.40
2022-12-28T14:46:06.964Z,2.58
2022-12-28T14:48:40.489Z,2.65
2022-12-28T14:51:17.534Z,2.30
2022-12-28T14:54:11.955Z,2.60
2022-12-28T14:56:39.358Z,2.55
2022-12-28T14:59:15.214Z,2.28
2022-12-28T15:01:45.099Z,2.60
2022-12-28T15:04:28.832Z,2.35
2022-12-28T15:06:55.451Z,2.58
2022-12-28T15:09:21.976Z,2.30
2022-12-28T15:11:48.533Z,2.55
2022-12-28T15:14:14.941Z,2.20
2022-12-28T15:16:41.458Z,2.10
2022-12-28T15:19:07.867Z,2.42
2022-12-28T15:21:34.430Z,2.50
2022-12-28T15:24:00.850Z,2.40
2022-12-28T15:26:30.688Z,2.38
2022-12-28T15:28:57.135Z,2.60
2022-12-28T15:31:23.712Z,2.60
2022-12-28T15:33:50.283Z,2.33
2022-12-28T15:36:20.183Z,2.63
2022-12-28T15:38:48.590Z,2.70
2022-12-28T15:41:35.009Z,3.63
2022-12-28T15:44:01.847Z,3.67
2022-12-28T15:46:28.600Z,4.10
2022-12-28T15:48:55.187Z,4.28
2022-12-28T15:51:21.664Z,4.20
2022-12-28T15:53:48.153Z,3.92
2022-12-28T15:56:26.721Z,3.90
2022-12-28T15:58:55.483Z,3.85
2022-12-28T16:01:23.263Z,3.75
2022-12-28T16:03:51.468Z,3.25
2022-12-28T16:06:18.785Z,3.47
2022-12-28T16:08:45.289Z,3.58
2022-12-28T16:11:19.037Z,3.70
2022-12-28T16:16:24.099Z,3.40
2022-12-28T16:18:53.499Z,3.58
2022-12-28T16:21:20.357Z,3.40
2022-12-28T16:23:46.800Z,3.65
2022-12-28T16:26:13.769Z,3.60
2022-12-28T16:28:40.862Z,3.78
2022-12-28T16:31:08.271Z,3.88
2022-12-28T16:33:34.950Z,3.70
2022-12-28T16:36:01.413Z,4.10
2022-12-28T16:38:28.939Z,4.20
2022-12-28T16:40:56.297Z,4.07
2022-12-28T16:43:23.251Z,4.60
2022-12-28T16:45:49.773Z,4.05
2022-12-28T16:48:16.691Z,4.63
2022-12-28T16:50:43.266Z,4.47
2022-12-28T16:53:09.793Z,4.13
2022-12-28T16:55:41.389Z,4.45
2022-12-28T16:58:08.995Z,4.40
2022-12-28T17:00:35.715Z,5.07
2022-12-28T17:03:02.247Z,5.57
2022-12-28T17:05:34.034Z,4.90
2022-12-28T17:08:01.151Z,4.90
2022-12-28T17:10:27.863Z,5.38
2022-12-28T17:12:54.327Z,5.38
2022-12-28T17:15:20.860Z,5.00
2022-12-28T17:17:47.356Z,4.97
2022-12-28T17:20:13.781Z,5.20
2022-12-28T17:22:40.824Z,4.80
2022-12-28T17:25:07.666Z,4.10
2022-12-28T17:27:34.405Z,4.90
2022-12-28T17:30:01.010Z,6.05
2022-12-28T17:32:27.474Z,5.82
2022-12-28T17:34:53.880Z,6.30
2022-12-28T17:37:20.343Z,6.30
2022-12-28T17:39:46.793Z,6.53
2022-12-28T17:42:13.199Z,6.18
2022-12-28T17:44:39.694Z,7.13
2022-12-28T17:47:06.235Z,7.90
2022-12-28T17:49:32.727Z,8.23
2022-12-28T17:51:59.161Z,8.00
2022-12-28T17:54:25.777Z,8.00
2022-12-28T17:56:52.205Z,7.93
2022-12-28T17:59:18.715Z,8.13
2022-12-28T18:01:45.266Z,7.90
2022-12-28T18:04:12.274Z,6.90
2022-12-28T18:06:39.244Z,6.40
2022-12-28T18:09:06.317Z,6.07
2022-12-28T18:11:33.456Z,6.38
2022-12-28T18:13:59.884Z,5.50
2022-12-28T18:16:27.224Z,5.55
2022-12-28T18:18:54.128Z,5.60
2022-12-28T18:21:23.088Z,4.82
2022-12-28T18:23:51.811Z,5.35
2022-12-28T18:26:23.762Z,4.57
2022-12-28T18:28:50.375Z,5.60
2022-12-28T18:31:17.009Z,5.78
2022-12-28T18:33:43.638Z,5.47
2022-12-28T18:36:16.874Z,5.22
2022-12-28T18:38:44.279Z,5.20
2022-12-28T18:41:12.876Z,5.05
2022-12-28T18:43:39.365Z,4.72
2022-12-28T18:46:06.854Z,4.40
2022-12-28T18:48:36.350Z,4.47
2022-12-28T18:51:14.699Z,4.57
2022-12-28T18:53:41.627Z,4.20
2022-12-28T18:56:10.178Z,3.97
2022-12-28T18:58:38.683Z,4.25
2022-12-28T19:01:25.962Z,3.90
2022-12-28T19:04:00.678Z,3.67
2022-12-28T19:06:27.747Z,3.28
2022-12-28T19:08:58.475Z,3.67
2022-12-28T19:11:25.034Z,3.22
2022-12-28T19:13:51.490Z,3.40
2022-12-28T19:16:23.219Z,3.05
2022-12-28T19:18:55.214Z,3.47
2022-12-28T19:21:26.646Z,3.22
2022-12-28T19:23:55.172Z,3.28
2022-12-28T19:26:22.735Z,3.10
2022-12-28T19:28:49.599Z,3.20
2022-12-28T19:31:16.105Z,3.50
2022-12-28T19:33:42.700Z,3.20
2022-12-28T19:36:10.121Z,3.70
2022-12-28T19:38:36.715Z,3.63
2022-12-28T19:41:08.495Z,3.67
2022-12-28T19:43:35.429Z,3.50
2022-12-28T19:46:14.213Z,3.70
2022-12-28T19:48:41.412Z,3.05
2022-12-28T19:51:08.438Z,2.97
2022-12-28T19:53:34.956Z,2.53
2022-12-28T19:56:11.651Z,2.80
2022-12-28T19:58:43.402Z,2.80
2022-12-28T20:01:19.281Z,3.22
2022-12-28T20:03:45.962Z,3.85
2022-12-28T20:06:18.203Z,3.33
2022-12-28T20:08:46.661Z,3.45
2022-12-28T20:11:13.308Z,4.00
2022-12-28T20:13:41.333Z,3.90
2022-12-28T20:16:08.789Z,3.30
2022-12-28T20:18:35.768Z,3.30
2022-12-28T20:21:22.376Z,3.50
2022-12-28T20:23:50.045Z,3.63
2022-12-28T20:26:17.907Z,3.10
2022-12-28T20:28:45.331Z,3.50
2022-12-28T20:31:15.133Z,3.50
2022-12-28T20:33:43.275Z,3.45
2022-12-28T20:36:22.301Z,3.38
2022-12-28T20:38:49.609Z,3.00
2022-12-28T20:41:40.143Z,3.22
2022-12-28T20:44:10.653Z,3.15
2022-12-28T20:46:37.801Z,2.83
2022-12-28T20:49:05.152Z,3.13
2022-12-28T20:51:31.900Z,3.08
2022-12-28T20:53:58.408Z,3.30
2022-12-28T20:56:24.849Z,2.88
2022-12-28T20:58:51.414Z,3.40
2022-12-28T21:01:18.209Z,3.83
2022-12-28T21:03:45.257Z,3.70
2022-12-28T21:06:12.383Z,4.22
2022-12-28T21:08:38.931Z,5.45
2022-12-28T21:11:05.804Z,5.25
2022-12-28T21:13:32.345Z,5.15
2022-12-28T21:15:59.196Z,5.28
2022-12-28T21:18:25.756Z,4.85
2022-12-28T21:21:00.278Z,4.60
2022-12-28T21:23:27.747Z,4.57
2022-12-28T21:26:03.258Z,4.45
2022-12-28T21:28:29.731Z,4.18
2022-12-28T21:30:57.541Z,4.15
2022-12-28T21:33:24.310Z,3.80
2022-12-28T21:36:09.759Z,4.15
2022-12-28T21:38:38.051Z,4.07
2022-12-28T21:41:10.646Z,4.00
2022-12-28T21:43:37.184Z,4.10
2022-12-28T21:46:10.976Z,4.03
2022-12-28T21:48:38.132Z,3.47
2022-12-28T21:51:04.570Z,3.53
2022-12-28T21:53:31.042Z,4.10
2022-12-28T21:55:57.467Z,3.70
2022-12-28T21:58:24.290Z,4.07
2022-12-28T22:01:09.651Z,3.75
2022-12-28T22:03:54.816Z,3.38
2022-12-28T22:06:21.258Z,3.70
2022-12-28T22:09:06.403Z,3.83
2022-12-28T22:11:51.295Z,3.92
2022-12-28T22:14:17.834Z,3.47
2022-12-28T22:16:44.407Z,3.35
2022-12-28T22:19:10.937Z,3.80
2022-12-28T22:21:37.412Z,4.20
2022-12-28T22:24:04.027Z,3.60
2022-12-28T22:26:30.516Z,4.28
2022-12-28T22:28:57.083Z,3.55
2022-12-28T22:31:23.880Z,3.97
2022-12-28T22:33:50.630Z,3.40
2022-12-28T22:36:18.942Z,3.38
2022-12-28T22:38:45.859Z,3.63
2022-12-28T22:41:12.412Z,3.70
2022-12-28T22:43:39.156Z,3.80
2022-12-28T22:46:11.018Z,3.70
2022-12-28T22:48:37.844Z,3.33
2022-12-28T22:51:06.747Z,3.03
2022-12-28T22:53:34.197Z,3.22
2022-12-28T22:56:02.211Z,3.70
2022-12-28T22:58:28.735Z,3.25
2022-12-28T23:01:10.134Z,3.50
2022-12-28T23:03:38.719Z,3.13
2022-12-28T23:06:06.620Z,3.17
2022-12-28T23:08:33.537Z,3.08
2022-12-28T23:11:04.925Z,3.70
2022-12-28T23:13:34.721Z,3.55
2022-12-28T23:16:04.171Z,2.95
2022-12-28T23:18:53.033Z,3.00
2022-12-28T23:21:40.570Z,2.95
2022-12-28T23:24:30.150Z,3.00
2022-12-28T23:27:15.979Z,3.22
2022-12-28T23:29:42.456Z,3.40
2022-12-28T23:32:09.008Z,3.22
2022-12-28T23:34:35.496Z,3.05
2022-12-28T23:37:02.246Z,3.35
2022-12-28T23:39:28.864Z,3.17
2022-12-28T23:41:55.863Z,2.90
2022-12-28T23:44:25.433Z,3.03
2022-12-28T23:46:58.637Z,3.15
2022-12-28T23:51:52.561Z,3.17
2022-12-28T23:54:19.834Z,3.55
2022-12-28T23:56:47.129Z,3.63
2022-12-28T23:59:13.657Z,3.70
